Time;durP1;ratioP1;P1;durP2;ratioP2;P2;SDS_P1;SDS_P2;PMS_P1;PMS_P2;Temp;Humidity;BMP_temperature;BMP_pressure;BME280_temperature;BME280_humidity;BME280_pressure;Samples;Min_cycle;Max_cycle;Signal;HPM_P1;HPM_P2
2023/10/01 17:15:43;;;;;;;23.50;12.80;;;;;;;16.36;60.71;100737.95;107830;1256;62056;-72
2023/10/01 17:18:18;;;;;;;23.10;11.10;;;;;;;16.36;60.92;100740.10;78117;1255;20002564;-72
2023/10/01 17:20:50;;;;;;;26.70;10.80;;;;;;;16.38;61.06;100736.23;107740;1256;74469;-72
2023/10/01 17:23:21;;;;;;;17.80;9.30;;;;;;;16.39;61.09;100733.86;107866;1256;61134;-72
2023/10/01 17:25:48;;;;;;;22.70;10.90;;;;;;;16.39;61.05;100735.86;107830;1256;61367;-72
2023/10/01 17:28:35;;;;;;;17.40;8.10;;;;;;;16.38;61.13;100737.31;107748;1258;74489;-72
2023/10/01 17:31:07;;;;;;;18.30;9.50;;;;;;;16.36;61.24;100740.21;107690;1256;71135;-72
2023/10/01 17:33:36;;;;;;;16.60;7.40;;;;;;;16.34;61.25;100740.34;107630;1257;74151;-72
2023/10/01 17:36:08;;;;;;;16.40;8.10;;;;;;;16.34;61.24;100739.10;107769;1256;63373;-71
2023/10/01 17:38:35;;;;;;;17.40;8.40;;;;;;;16.32;61.37;100738.85;107768;1257;61143;-73
2023/10/01 17:41:18;;;;;;;15.30;6.90;;;;;;;16.31;61.50;100738.66;107740;1257;74954;-72
2023/10/01 17:43:55;;;;;;;16.40;6.50;;;;;;;16.28;61.52;100736.92;107712;1257;72678;-71
2023/10/01 17:46:25;;;;;;;11.50;5.60;;;;;;;16.24;61.47;100737.18;107848;1255;72730;-72
2023/10/01 17:48:55;;;;;;;14.80;5.50;;;;;;;16.21;61.39;100732.70;107824;1256;62147;-71
2023/10/01 17:51:27;;;;;;;12.00;5.60;;;;;;;16.18;61.35;100735.38;107809;1256;61265;-71
2023/10/01 17:54:05;;;;;;;11.70;5.00;;;;;;;16.16;61.37;100736.21;107783;1256;76117;-73
2023/10/01 17:56:35;;;;;;;13.70;6.90;;;;;;;16.13;61.39;100731.14;107800;1256;72830;-72
2023/10/01 17:59:14;;;;;;;15.10;7.40;;;;;;;16.10;61.29;100734.95;107778;1255;73868;-71
2023/10/01 18:01:44;;;;;;;14.00;5.50;;;;;;;16.09;61.26;100738.03;107743;1255;61224;-72
2023/10/01 18:04:16;;;;;;;10.20;5.30;;;;;;;16.09;61.24;100737.92;107855;1256;61249;-73
2023/10/01 18:06:55;;;;;;;10.10;4.80;;;;;;;16.07;61.29;100733.80;107955;1256;74658;-72
2023/10/01 18:09:21;;;;;;;13.80;4.60;;;;;;;16.05;61.28;100737.44;107873;1256;72617;-73
2023/10/01 18:12:01;;;;;;;9.80;4.70;;;;;;;16.02;61.34;100737.27;107922;1255;72790;-71
2023/10/01 18:14:35;;;;;;;10.40;4.30;;;;;;;16.00;61.41;100740.05;107948;1256;62076;-72
2023/10/01 18:17:04;;;;;;;10.50;4.40;;;;;;;15.99;61.66;100744.84;108499;1255;59619;-72
2023/10/01 18:19:32;;;;;;;10.70;5.10;;;;;;;15.98;61.75;100739.52;107875;1255;74707;-71
2023/10/01 18:21:59;;;;;;;9.80;4.40;;;;;;;15.97;61.87;100740.24;107982;1256;72801;-72
2023/10/01 18:24:27;;;;;;;10.80;5.00;;;;;;;15.95;61.79;100741.75;107882;1255;70810;-72
2023/10/01 18:26:56;;;;;;;12.80;4.60;;;;;;;15.95;61.95;100745.09;107966;1260;60010;-72
2023/10/01 18:29:24;;;;;;;11.30;4.90;;;;;;;15.96;61.86;100742.19;107926;1256;61244;-72
2023/10/01 18:31:51;;;;;;;10.90;4.60;;;;;;;15.97;61.84;100747.44;107927;1256;74600;-72
2023/10/01 18:34:30;;;;;;;11.60;5.00;;;;;;;15.99;61.90;100745.92;108016;1255;73074;-70
2023/10/01 18:37:06;;;;;;;10.10;4.90;;;;;;;16.00;61.95;100744.14;107957;1256;71980;-71
2023/10/01 18:39:34;;;;;;;11.10;5.00;;;;;;;16.01;61.89;100746.96;107934;1255;61138;-71
2023/10/01 18:42:02;;;;;;;11.30;5.50;;;;;;;16.02;61.94;100744.04;107856;1256;61142;-71
2023/10/01 18:44:30;;;;;;;9.60;4.90;;;;;;;16.04;61.88;100740.76;107834;1260;74554;-71
2023/10/01 18:46:57;;;;;;;10.00;4.80;;;;;;;16.05;61.77;100741.46;107853;1256;73156;-71
2023/10/01 18:49:25;;;;;;;11.60;5.30;;;;;;;16.05;61.73;100741.52;107844;1257;72084;-72
2023/10/01 18:51:52;;;;;;;10.50;4.90;;;;;;;16.05;61.64;100739.54;107674;1256;61967;-72
2023/10/01 18:54:23;;;;;;;11.30;5.30;;;;;;;16.05;61.60;100738.71;107956;1256;61184;-72
2023/10/01 18:56:57;;;;;;;10.10;5.00;;;;;;;16.05;61.56;100739.91;107984;1256;75960;-71
2023/10/01 18:59:26;;;;;;;12.00;4.80;;;;;;;16.04;61.45;100740.48;107981;1256;73517;-71
2023/10/01 19:01:57;;;;;;;8.70;4.10;;;;;;;16.04;61.44;100739.27;107742;1256;72946;-71
2023/10/01 19:04:25;;;;;;;10.40;5.30;;;;;;;16.07;61.44;100745.76;107949;1255;62552;-71
2023/10/01 19:06:56;;;;;;;9.40;4.50;;;;;;;16.09;61.33;100745.63;107925;1255;61193;-72
2023/10/01 19:09:24;;;;;;;10.50;4.60;;;;;;;16.10;61.27;100747.33;107861;1256;74560;-72
2023/10/01 19:11:55;;;;;;;10.70;4.50;;;;;;;16.11;61.16;100751.59;107952;1259;71262;-72
2023/10/01 19:14:22;;;;;;;10.60;4.20;;;;;;;16.12;61.12;100747.74;107904;1260;72754;-72
2023/10/01 19:16:49;;;;;;;11.00;4.20;;;;;;;16.12;61.02;100748.27;107895;1256;61050;-72
2023/10/01 19:19:17;;;;;;;9.30;4.10;;;;;;;16.21;60.89;100748.55;107971;1256;61140;-72
2023/10/01 19:21:51;;;;;;;10.30;4.40;;;;;;;16.20;60.65;100750.92;107965;1256;75169;-71
2023/10/01 19:24:19;;;;;;;9.20;3.90;;;;;;;16.15;60.67;100748.73;107944;1257;72598;-72
2023/10/01 19:26:46;;;;;;;10.60;3.80;;;;;;;16.16;60.50;100749.52;107741;1256;72643;-73
2023/10/01 19:29:14;;;;;;;9.90;3.40;;;;;;;16.16;60.25;100751.84;107904;1256;61221;-72
2023/10/01 19:31:54;;;;;;;8.60;3.10;;;;;;;16.17;60.00;100751.84;107861;1259;61108;-72
2023/10/01 19:34:25;;;;;;;8.40;3.30;;;;;;;16.20;59.74;100749.55;107889;1258;74437;-70
2023/10/01 19:36:56;;;;;;;10.40;3.40;;;;;;;16.22;59.61;100750.69;107938;1256;72438;-71
2023/10/01 19:39:22;;;;;;;9.00;3.50;;;;;;;16.26;59.54;100746.98;107900;1256;72445;-71
2023/10/01 19:41:54;;;;;;;14.20;4.00;;;;;;;16.28;59.38;100746.73;107876;1256;60574;-72
2023/10/01 19:44:28;;;;;;;12.70;3.60;;;;;;;16.29;59.28;100744.67;107915;1256;61075;-72
2023/10/01 19:47:09;;;;;;;9.20;3.60;;;;;;;16.32;59.14;100749.54;107922;1255;72802;-72
2023/10/01 19:49:39;;;;;;;7.20;3.00;;;;;;;16.34;58.91;100750.14;107871;1256;73495;-71
2023/10/01 19:52:22;;;;;;;7.90;3.30;;;;;;;16.35;58.70;100748.90;107903;1256;72590;-72
2023/10/01 19:54:56;;;;;;;9.90;3.10;;;;;;;16.36;58.71;100748.63;107913;1256;61881;-73
2023/10/01 19:57:38;;;;;;;8.10;2.90;;;;;;;16.37;58.70;100749.59;107925;1256;61076;-72
2023/10/01 20:00:17;;;;;;;7.50;3.50;;;;;;;16.37;58.68;100748.60;107880;1256;74516;-72
2023/10/01 20:02:45;;;;;;;8.40;3.10;;;;;;;16.36;58.62;100750.66;107921;1256;72725;-72
2023/10/01 20:05:16;;;;;;;7.10;3.30;;;;;;;16.37;58.50;100749.46;107882;1255;72697;-72
2023/10/01 20:07:43;;;;;;;8.60;3.10;;;;;;;16.38;58.31;100749.98;107934;1256;61242;-72
2023/10/01 20:10:11;;;;;;;6.70;2.90;;;;;;;16.38;58.10;100749.60;107986;1255;61225;-72
2023/10/01 20:12:40;;;;;;;10.60;3.10;;;;;;;16.39;58.01;100751.48;107732;1256;74650;-72
2023/10/01 20:15:20;;;;;;;8.90;2.70;;;;;;;16.39;57.98;100747.88;107890;1255;72803;-72
2023/10/01 20:17:48;;;;;;;10.40;3.20;;;;;;;16.40;57.84;100748.40;108006;1256;71260;-71
2023/10/01 20:20:18;;;;;;;10.70;3.40;;;;;;;16.42;57.78;100751.45;107900;1255;61116;-71
2023/10/01 20:22:45;;;;;;;8.30;3.00;;;;;;;16.40;57.55;100752.00;107726;1256;61083;-74
2023/10/01 20:25:12;;;;;;;8.80;3.40;;;;;;;16.43;57.53;100752.14;107981;1256;73456;-70
2023/10/01 20:27:39;;;;;;;8.70;2.90;;;;;;;16.45;57.36;100751.45;107892;1256;72560;-72
2023/10/01 20:30:06;;;;;;;9.60;3.50;;;;;;;16.46;57.21;100750.21;107928;1256;72374;-71
2023/10/01 20:32:38;;;;;;;9.10;3.10;;;;;;;16.48;57.06;100750.98;107951;1257;61745;-73
2023/10/01 20:35:10;;;;;;;8.10;3.20;;;;;;;16.50;57.05;100750.31;107989;1256;61134;-71
2023/10/01 20:37:37;;;;;;;;;;;;;;;16.51;57.05;100746.45;108006;1256;74482;-72
2023/10/01 20:40:12;;;;;;;9.70;3.40;;;;;;;16.53;57.03;100751.73;107953;1256;71621;-72
2023/10/01 20:42:40;;;;;;;7.30;2.90;;;;;;;16.54;56.98;100747.55;107971;1256;72687;-72
2023/10/01 20:45:20;;;;;;;7.50;2.90;;;;;;;16.54;57.09;100752.95;107917;1258;61899;-72
2023/10/01 20:47:53;;;;;;;10.00;3.20;;;;;;;16.53;57.17;100755.12;107992;1256;61098;-72
2023/10/01 20:50:38;;;;;;;7.90;3.30;;;;;;;16.51;57.34;100757.09;108021;1256;73240;-72
2023/10/01 20:53:05;;;;;;;9.00;3.10;;;;;;;16.49;57.56;100753.83;108030;1258;72548;-72
2023/10/01 20:55:35;;;;;;;11.00;3.30;;;;;;;16.49;57.70;100751.95;107705;1256;71659;-72
2023/10/01 20:58:05;;;;;;;7.00;3.20;;;;;;;16.48;57.87;100753.08;107974;1256;61136;-72
2023/10/01 21:00:37;;;;;;;8.20;3.00;;;;;;;16.49;57.98;100752.74;107943;1256;61090;-72
2023/10/01 21:03:10;;;;;;;7.50;3.00;;;;;;;16.49;58.11;100751.13;107973;1256;74530;-72
2023/10/01 21:05:37;;;;;;;8.50;3.00;;;;;;;16.48;58.10;100751.68;107957;1256;72258;-71
2023/10/01 21:08:11;;;;;;;8.20;3.00;;;;;;;16.46;58.08;100754.24;107926;1256;72596;-71
2023/10/01 21:10:41;;;;;;;8.70;2.80;;;;;;;16.45;58.03;100751.98;107894;1256;61151;-71
2023/10/01 21:13:26;;;;;;;9.80;3.10;;;;;;;16.44;58.07;100754.16;107932;1255;61137;-71
2023/10/01 21:16:00;;;;;;;10.40;3.00;;;;;;;16.44;58.08;100754.48;107896;1256;75027;-72
2023/10/01 21:18:30;;;;;;;9.40;3.00;;;;;;;16.43;58.02;100756.92;107927;1256;74079;-71
2023/10/01 21:20:59;;;;;;;6.60;2.80;;;;;;;16.43;57.87;100756.45;107856;1255;71480;-74
2023/10/01 21:23:26;;;;;;;8.00;3.00;;;;;;;16.44;57.85;100760.36;107935;1256;64070;-71
2023/10/01 21:25:54;;;;;;;8.00;2.90;;;;;;;16.45;57.85;100759.20;107900;1260;61174;-71
2023/10/01 21:28:21;;;;;;;8.40;3.00;;;;;;;16.48;57.85;100754.65;107898;1256;74633;-72
2023/10/01 21:30:48;;;;;;;8.50;2.80;;;;;;;16.50;57.69;100755.48;107985;1256;72976;-71
2023/10/01 21:33:17;;;;;;;8.90;3.10;;;;;;;16.53;57.56;100753.38;107912;1256;72651;-72
2023/10/01 21:35:45;;;;;;;7.70;3.10;;;;;;;16.56;57.51;100751.52;107907;1260;61099;-72
2023/10/01 21:38:21;;;;;;;8.90;3.10;;;;;;;16.57;57.34;100752.36;108003;1256;61235;-71
2023/10/01 21:40:51;;;;;;;9.90;3.10;;;;;;;16.57;57.29;100751.38;107930;1256;74533;-71
2023/10/01 21:43:24;;;;;;;8.40;3.10;;;;;;;16.58;57.35;100752.79;107940;1256;73023;-72
2023/10/01 21:46:01;;;;;;;8.80;3.00;;;;;;;16.59;57.45;100749.11;107929;1256;72546;-72
2023/10/01 21:48:29;;;;;;;8.10;3.00;;;;;;;16.60;57.50;100750.95;107969;1256;61078;-71
2023/10/01 21:50:59;;;;;;;11.70;2.90;;;;;;;16.61;57.41;100750.61;107937;1255;61255;-71
2023/10/01 21:53:38;;;;;;;7.60;3.00;;;;;;;16.61;57.34;100755.41;107870;1256;75462;-71
2023/10/01 21:56:06;;;;;;;7.00;3.00;;;;;;;16.62;57.34;100753.20;107957;1256;73291;-71
2023/10/01 21:58:35;;;;;;;10.40;3.50;;;;;;;16.63;57.29;100758.05;107921;1256;72765;-71
2023/10/01 22:01:02;;;;;;;6.60;2.60;;;;;;;16.62;57.33;100758.11;107967;1256;61209;-72
2023/10/01 22:03:33;;;;;;;8.60;2.90;;;;;;;16.61;57.21;100756.88;107947;1256;61141;-71
2023/10/01 22:06:00;;;;;;;6.90;2.60;;;;;;;16.60;57.29;100756.52;108017;1260;74609;-71
2023/10/01 22:08:32;;;;;;;6.50;2.30;;;;;;;16.59;57.30;100759.39;107942;1256;72504;-72
2023/10/01 22:10:59;;;;;;;8.30;3.10;;;;;;;16.58;57.36;100761.89;107919;1256;71154;-72
2023/10/01 22:13:28;;;;;;;8.00;2.90;;;;;;;16.57;57.41;100764.11;107904;1256;61302;-71
2023/10/01 22:16:00;;;;;;;9.20;2.40;;;;;;;16.56;57.44;100765.95;107925;1256;61122;-72
2023/10/01 22:18:28;;;;;;;12.20;3.00;;;;;;;16.54;57.48;100764.36;107711;1256;74562;-72
2023/10/01 22:20:57;;;;;;;7.00;2.60;;;;;;;16.52;57.48;100762.35;107868;1256;71523;-72
2023/10/01 22:23:30;;;;;;;9.20;2.80;;;;;;;16.51;57.56;100763.11;107963;1256;72720;-70
2023/10/01 22:26:04;;;;;;;8.80;2.60;;;;;;;16.50;57.61;100765.19;107893;1256;61260;-71
2023/10/01 22:28:33;;;;;;;10.30;3.10;;;;;;;16.47;57.69;100764.25;107944;1256;61131;-70
2023/10/01 22:31:05;;;;;;;6.60;2.50;;;;;;;16.44;57.82;100766.08;107980;1256;73446;-70
2023/10/01 22:33:37;;;;;;;8.10;2.80;;;;;;;16.40;57.94;100765.21;107947;1255;73067;-70
2023/10/01 22:36:04;;;;;;;6.60;2.60;;;;;;;16.37;58.06;100763.41;107960;1256;72768;-72
2023/10/01 22:38:31;;;;;;;13.20;3.20;;;;;;;16.34;58.15;100761.96;107935;1256;62095;-71
2023/10/01 22:40:57;;;;;;;7.20;3.00;;;;;;;16.31;58.35;100760.92;107917;1256;61135;-71
2023/10/01 22:43:26;;;;;;;13.80;3.20;;;;;;;16.27;58.53;100758.70;107928;1256;74650;-72
2023/10/01 22:45:56;;;;;;;9.70;2.90;;;;;;;16.25;58.68;100760.46;107912;1255;72751;-71
2023/10/01 22:48:43;;;;;;;8.50;2.60;;;;;;;16.22;58.76;100758.99;107974;1256;71829;-72
2023/10/01 22:51:23;;;;;;;9.10;3.20;;;;;;;16.19;58.98;100764.52;107834;1257;61758;-71
2023/10/01 22:53:50;;;;;;;10.30;3.50;;;;;;;16.16;59.12;100763.27;107935;1256;60217;-71
2023/10/01 22:56:17;;;;;;;8.60;2.90;;;;;;;16.14;59.26;100767.54;107895;1260;74452;-71
2023/10/01 22:58:44;;;;;;;8.90;2.90;;;;;;;16.13;59.30;100767.94;107930;1256;71261;-72
2023/10/01 23:01:11;;;;;;;7.50;3.10;;;;;;;16.11;59.35;100770.17;107932;1256;72746;-71
2023/10/01 23:03:39;;;;;;;8.80;2.80;;;;;;;16.09;59.46;100766.54;107916;1256;61216;-70
2023/10/01 23:06:06;;;;;;;10.10;3.30;;;;;;;16.07;59.60;100772.06;107932;1256;61826;-71
2023/10/01 23:08:34;;;;;;;7.20;2.70;;;;;;;16.04;59.61;100774.64;108091;1256;73761;-72
2023/10/01 23:11:02;;;;;;;7.80;2.40;;;;;;;16.01;59.58;100778.31;108149;1255;72503;-70
2023/10/01 23:13:37;;;;;;;9.90;2.90;;;;;;;15.99;59.71;100778.03;107902;1256;71909;-71
2023/10/01 23:16:16;;;;;;;8.80;2.90;;;;;;;15.95;59.73;100772.46;107919;1256;61810;-70
2023/10/01 23:18:45;;;;;;;7.50;2.80;;;;;;;15.93;59.88;100774.80;107939;1256;60428;-71
2023/10/01 23:21:14;;;;;;;8.40;3.00;;;;;;;15.91;60.06;100766.90;107928;1256;74631;-70
2023/10/01 23:23:42;;;;;;;8.90;2.80;;;;;;;15.90;60.06;100770.20;107876;1256;72548;-70
2023/10/01 23:31:34;;;;;;;9.00;3.10;;;;;;;15.86;60.33;100774.61;107983;1255;61220;-71
2023/10/01 23:34:01;;;;;;;10.20;3.20;;;;;;;15.85;60.37;100775.91;107981;1256;72941;-71
2023/10/01 23:36:49;;;;;;;7.80;3.20;;;;;;;15.84;60.45;100772.29;108055;1255;72838;-71
2023/10/01 23:42:00;;;;;;;8.00;2.80;;;;;;;15.81;60.58;100772.10;107935;1259;60562;-71
2023/10/01 23:44:27;;;;;;;7.60;2.90;;;;;;;15.80;60.69;100767.48;107945;1256;61160;-70
2023/10/01 23:46:54;;;;;;;8.30;3.00;;;;;;;15.78;60.79;100768.14;107972;1256;73277;-71
2023/10/01 23:49:24;;;;;;;7.40;3.00;;;;;;;15.78;60.90;100769.34;107980;1256;71791;-70
2023/10/01 23:52:01;;;;;;;10.50;3.60;;;;;;;15.77;61.05;100769.23;107967;1260;72733;-70
2023/10/01 23:54:45;;;;;;;10.70;2.80;;;;;;;15.75;61.09;100769.20;107945;1255;61678;-71
2023/10/01 23:57:13;;;;;;;9.00;3.00;;;;;;;15.74;61.17;100769.38;107874;1256;61240;-71
2023/10/01 23:59:47;;;;;;;10.10;3.00;;;;;;;15.70;61.30;100770.42;107979;1256;74476;-70
